Latest Weather Observations for Gove Airport

IDD60801

Issued at 10:41 pm CST Monday 6 February 2023 (issued every 10 minutes, with the page automatically refreshed every 10 minutes)

About weather observations | Map of weather stations | Latest weather observations for NT | Other Formats
Station Details ID: 014508 Name: GOVE AIRPORT Lat: -12.27 Lon: 136.82 Height: 51.6 m
Data from the previous 72 hours. | See also: Recent months at Gove Airport
Date/Time
CST
Temp
°C
App
Temp
°C
Dew
Point
°C
Rel
Hum
%
Delta-T
°C
Wind Press
QNH
hPa
Press
MSL
hPa
Rain since
9am
mm
Dir  Spd
km/h
Gust
km/h
Spd
kts
Gust
kts
06/10:30pm 26.7 32.2 23.4 82 2.3 CALM 0 0 0 0 1007.3 1007.0 0.0
06/10:00pm 26.6 31.9 23.1 81 2.4 CALM 0 0 0 0 1007.0 1006.7 0.0
06/09:30pm 26.7 30.9 23.2 81 2.4 SE 6 7 3 4 1006.4 1006.1 0.0
06/09:00pm 27.0 31.1 23.0 79 2.7 SE 6 7 3 4 1006.3 1006.0 0.0
06/08:30pm 27.0 31.9 23.0 79 2.7 SE 2 6 1 3 1006.1 1005.8 0.0
06/08:00pm 27.4 31.0 23.0 77 3.0 SE 9 11 5 6 1006.0 1005.7 0.0
06/07:30pm 27.8 31.5 23.2 76 3.2 SE 9 11 5 6 1005.9 1005.6 0.0
06/07:00pm 28.3 31.4 22.8 72 3.7 SE 11 15 6 8 1005.6 1005.3 0.0
06/06:30pm 29.1 32.0 23.1 70 4.1 SE 13 19 7 10 1005.4 1005.1 0.0
06/06:00pm 29.9 31.6 21.6 61 5.6 SSE 15 20 8 11 1005.2 1004.9 0.0
06/05:30pm 30.5 32.6 22.4 62 5.5 E 15 20 8 11 1005.0 1004.7 0.0
06/05:00pm 30.4 32.6 23.3 66 4.9 E 17 24 9 13 1004.8 1004.5 0.0
06/04:30pm 30.7 32.5 21.8 59 6.0 E 15 30 8 16 1004.6 1004.3 0.0
06/04:00pm 31.1 32.8 21.6 57 6.4 E 15 24 8 13 1004.7 1004.4 0.0
06/03:30pm 31.7 33.6 22.7 59 6.2 E 17 22 9 12 1004.8 1004.5 0.0
06/03:00pm 31.1 33.1 23.0 62 5.6 E 17 24 9 13 1005.2 1004.9 0.0
06/02:30pm 30.9 32.6 23.0 62 5.4 E 19 26 10 14 1005.3 1005.0 0.0
06/02:00pm 30.7 32.4 23.4 65 5.0 NE 20 32 11 17 1005.6 1005.3 0.0
06/01:30pm 31.1 32.8 23.0 62 5.6 NE 19 28 10 15 1005.9 1005.6 0.0
06/01:00pm 31.0 33.2 23.9 66 4.9 NE 19 28 10 15 1006.1 1005.8 0.0
06/12:30pm 31.3 32.4 22.0 57 6.3 ENE 19 24 10 13 1006.2 1005.9 0.0
06/12:00pm 30.1 33.1 23.3 67 4.7 ENE 13 20 7 11 1006.7 1006.4 0.0
06/11:30am 30.9 33.6 22.8 62 5.6 ENE 13 20 7 11 1007.2 1006.9 0.0
06/11:00am 31.0 33.4 23.6 64 5.1 ENE 17 22 9 12 1007.3 1007.0 0.0
06/10:30am 30.9 33.8 23.8 66 4.9 ENE 15 22 8 12 1007.6 1007.2 0.0
06/10:00am 30.6 33.6 23.3 65 5.0 NE 13 17 7 9 1007.7 1007.3 0.0
06/09:30am 29.9 32.6 22.9 66 4.8 NNE 13 19 7 10 1007.7 1007.3 0.0
06/09:03am 30.1 33.2 23.5 67 4.6 ENE 13 22 7 12 1007.7 1007.3 0.0
06/09:00am 29.9 32.4 23.1 67 4.7 E 15 20 8 11 1007.7 1007.3 0.0
06/08:30am 29.4 32.9 23.6 71 4.0 E 11 17 6 9 1007.6 1007.2 0.0
06/08:00am 28.5 33.4 23.6 75 3.4 ESE 4 7 2 4 1007.3 1007.0 0.0
06/07:30am 27.6 33.3 23.8 80 2.6 CALM 0 0 0 0 1007.1 1006.8 0.0
06/07:00am 25.3 31.0 23.7 91 1.1 CALM 0 0 0 0 1006.5 1006.2 0.0
06/06:30am 24.2 29.5 23.0 93 0.8 CALM 0 0 0 0 1006.2 1005.9 0.0
06/06:00am 23.9 28.8 22.3 91 1.1 CALM 0 0 0 0 1006.1 1005.8 0.0
06/05:30am 24.3 29.4 22.6 90 1.1 CALM 0 0 0 0 1005.8 1005.5 0.0
06/05:00am 24.6 29.8 22.8 90 1.2 CALM 0 0 0 0 1005.7 1005.4 0.0
06/04:30am 24.5 28.7 22.4 88 1.4 ESE 4 7 2 4 1005.6 1005.3 0.0
06/04:00am 24.1 28.3 22.5 91 1.1 ESE 4 9 2 5 1005.4 1005.1 0.0
06/03:30am 23.9 28.8 22.3 91 1.1 CALM 0 6 0 3 1005.2 1004.9 0.0
06/03:00am 23.4 26.9 21.8 91 1.1 ESE 6 9 3 5 1005.3 1005.0 0.0
06/02:30am 24.2 29.4 22.8 92 0.9 CALM 0 0 0 0 1005.4 1005.1 0.0
06/02:00am 24.3 29.4 22.7 91 1.1 CALM 0 0 0 0 1005.7 1005.4 0.0
06/01:30am 24.6 29.6 22.5 88 1.4 CALM 0 0 0 0 1006.4 1006.1 0.0
06/01:00am 24.6 29.6 22.5 88 1.4 CALM 0 0 0 0 1006.7 1006.4 0.0
06/12:30am 24.7 29.9 22.8 89 1.3 CALM 0 0 0 0 1007.0 1006.7 0.0
06/12:00am 24.6 29.8 22.8 90 1.2 CALM 0 0 0 0 1007.5 1007.1 0.0
 
Date/Time
CST
Temp
°C
App
Temp
°C
Dew
Point
°C
Rel
Hum
%
Delta-T
°C
Wind Press
QNH
hPa
Press
MSL
hPa
Rain since
9am
mm
Dir  Spd
km/h
Gust
km/h
Spd
kts
Gust
kts
05/11:30pm 24.6 29.8 22.8 90 1.2 CALM 0 0 0 0 1007.7 1007.3 0.0
05/11:00pm 25.3 30.5 22.8 86 1.7 CALM 0 0 0 0 1007.9 1007.5 0.0
05/10:30pm 25.1 30.4 23.0 88 1.4 CALM 0 0 0 0 1007.7 1007.3 0.0
05/10:00pm 24.9 28.9 22.8 88 1.4 ESE 6 7 3 4 1007.1 1006.8 0.0
05/09:30pm 25.5 31.0 23.4 88 1.4 CALM 0 0 0 0 1007.1 1006.8 0.0
05/09:00pm 26.0 31.6 23.5 86 1.7 CALM 0 0 0 0 1006.9 1006.6 0.0
05/08:30pm 26.1 31.4 23.0 83 2.1 CALM 0 0 0 0 1006.5 1006.2 0.0
05/08:00pm 26.7 30.7 22.8 79 2.6 ESE 6 7 3 4 1006.4 1006.1 0.0
05/07:30pm 27.4 31.0 22.4 74 3.4 ESE 7 9 4 5 1006.1 1005.8 0.0
05/07:00pm 28.0 31.0 22.0 70 4.0 ESE 9 11 5 6 1006.0 1005.7 0.0
05/06:30pm 28.7 30.3 21.5 65 4.8 ESE 15 17 8 9 1005.6 1005.3 0.0
05/06:00pm 29.3 30.8 21.3 62 5.4 ESE 15 20 8 11 1005.4 1005.1 0.0
05/05:30pm 29.8 31.4 21.5 61 5.6 ESE 15 22 8 12 1005.2 1004.9 0.0
05/05:00pm 29.7 31.3 21.4 61 5.6 SE 15 20 8 11 1005.0 1004.7 0.0
05/04:30pm 30.3 31.3 21.1 58 6.2 ESE 17 22 9 12 1005.0 1004.7 0.0
05/04:00pm 30.5 33.0 23.2 65 5.0 SE 15 22 8 12 1005.1 1004.8 0.0
05/03:30pm 30.2 31.7 21.3 59 6.0 SE 15 20 8 11 1005.1 1004.8 0.0
05/03:00pm 30.2 30.8 20.2 55 6.6 SSE 17 22 9 12 1005.1 1004.8 0.0
05/02:30pm 31.6 31.4 17.5 43 9.0 ESE 15 20 8 11 1005.0 1004.7 0.0
05/02:00pm 31.2 32.2 19.5 49 7.7 SE 13 20 7 11 1005.2 1004.9 0.0
05/01:30pm 31.2 31.8 19.5 49 7.7 SE 15 19 8 10 1005.4 1005.1 0.0
05/01:00pm 30.9 32.2 20.2 53 7.1 ESE 13 24 7 13 1005.6 1005.3 0.0
05/12:30pm 31.9 36.4 22.9 59 6.2 ESE 4 17 2 9 1005.9 1005.6 0.0
05/12:00pm 31.6 33.5 20.5 51 7.4 ESE 11 17 6 9 1006.1 1005.8 0.0
05/11:30am 31.5 35.7 21.7 56 6.6 SSW 2 9 1 5 1006.5 1006.2 0.0
05/11:00am 31.3 35.0 21.5 56 6.6 SSE 4 13 2 7 1006.9 1006.6 0.0
05/10:30am 30.4 33.5 21.5 59 6.0 ESE 7 11 4 6 1007.2 1006.9 0.0
05/10:00am 30.0 34.5 22.9 65 4.9 NNE 4 7 2 4 1007.7 1007.3 0.0
05/09:30am 29.4 33.8 23.4 70 4.1 SW 6 9 3 5 1007.8 1007.4 0.0
05/09:00am 28.8 33.6 22.8 70 4.1 WNW 2 7 1 4 1007.6 1007.2 3.0
05/08:30am 27.9 32.4 23.9 79 2.8 WSW 7 11 4 6 1007.5 1007.1 3.0
05/08:00am 26.1 30.8 24.0 88 1.4 W 6 7 3 4 1007.6 1007.2 3.0
05/07:30am 24.6 29.8 22.8 90 1.2 CALM 0 0 0 0 1007.2 1006.9 3.0
05/07:00am 23.7 28.5 22.1 91 1.1 CALM 0 0 0 0 1007.0 1006.7 3.0
05/06:30am 23.4 28.2 22.2 93 0.8 CALM 0 0 0 0 1006.7 1006.4 3.0
05/06:00am 23.3 28.2 22.3 94 0.7 CALM 0 0 0 0 1006.3 1006.0 3.0
05/05:30am 23.1 27.8 21.9 93 0.8 CALM 0 0 0 0 1006.1 1005.8 3.0
05/05:00am 23.3 27.9 21.7 91 1.1 CALM 0 0 0 0 1005.9 1005.6 3.0
05/04:30am 23.9 27.2 21.8 88 1.4 W 7 9 4 5 1005.8 1005.5 3.0
05/04:00am 23.0 27.7 22.0 94 0.7 CALM 0 0 0 0 1005.7 1005.4 3.0
05/03:30am 23.1 27.8 21.9 93 0.8 CALM 0 0 0 0 1005.5 1005.2 3.0
05/03:00am 23.3 28.0 21.9 92 0.9 CALM 0 0 0 0 1005.6 1005.3 3.0
05/02:30am 23.4 28.1 22.0 92 0.9 CALM 0 0 0 0 1005.7 1005.4 3.0
05/02:00am 24.2 29.4 22.8 92 0.9 CALM 0 0 0 0 1005.7 1005.4 3.0
05/01:30am 24.5 28.8 22.6 89 1.3 W 4 7 2 4 1006.0 1005.7 3.0
05/01:00am 24.5 28.2 22.2 87 1.5 W 6 9 3 5 1006.4 1006.1 3.0
05/12:35am 24.4 29.4 22.5 89 1.3 CALM 0 0 0 0 1006.7 1006.4 3.0
05/12:30am 24.6 29.9 23.0 91 1.1 CALM 0 0 0 0 1006.7 1006.4 3.0
05/12:19am 24.7 29.3 23.1 91 1.1 W 4 7 2 4 1006.8 1006.5 3.0
05/12:00am 24.7 28.9 23.1 91 1.1 WSW 6 7 3 4 1006.9 1006.6 3.0
 
Date/Time
CST
Temp
°C
App
Temp
°C
Dew
Point
°C
Rel
Hum
%
Delta-T
°C
Wind Press
QNH
hPa
Press
MSL
hPa
Rain since
9am
mm
Dir  Spd
km/h
Gust
km/h
Spd
kts
Gust
kts
04/11:30pm 25.0 30.7 23.8 93 0.8 CALM 0 0 0 0 1007.2 1006.9 3.0
04/11:00pm 25.4 31.4 24.2 93 0.8 CALM 0 0 0 0 1007.3 1007.0 3.0
04/10:30pm 25.5 30.3 24.1 92 1.0 W 6 9 3 5 1007.6 1007.2 3.0
04/10:00pm 25.5 30.2 23.9 91 1.1 W 6 9 3 5 1007.5 1007.1 3.0
04/09:30pm 25.6 29.9 23.7 89 1.3 W 7 9 4 5 1007.2 1006.9 3.0
04/09:00pm 26.0 30.0 23.1 84 2.0 WNW 7 9 4 5 1006.8 1006.5 3.0
04/08:30pm 25.9 31.5 23.6 87 1.6 CALM 0 0 0 0 1006.5 1006.2 3.0
04/08:00pm 25.8 30.7 23.7 88 1.4 W 4 7 2 4 1006.1 1005.8 3.0
04/07:30pm 26.0 31.4 23.9 88 1.4 WNW 2 6 1 3 1006.0 1005.7 3.0
04/07:00pm 26.4 32.3 24.1 87 1.6 CALM 0 0 0 0 1005.4 1005.1 3.0
04/06:30pm 26.4 31.5 23.3 83 2.1 N 2 7 1 4 1005.1 1004.8 3.0
04/06:00pm 26.5 31.5 23.2 82 2.3 NNW 2 7 1 4 1005.0 1004.7 3.0
04/05:30pm 26.4 30.2 23.5 84 2.0 NNW 9 13 5 7 1004.7 1004.4 3.0
04/05:00pm 26.5 29.5 23.4 83 2.1 NW 13 17 7 9 1004.8 1004.5 3.0
04/04:30pm 27.2 29.2 23.0 78 2.9 NW 17 20 9 11 1004.6 1004.3 3.0
04/04:00pm 27.6 31.2 23.8 80 2.6 N 11 15 6 8 1004.3 1004.0 3.0
04/03:30pm 27.4 31.1 23.2 78 2.9 N 9 13 5 7 1004.4 1004.1 3.0
04/03:00pm 27.1 30.2 22.9 78 2.9 NNE 11 13 6 7 1004.3 1004.0 3.0
04/02:30pm 27.3 31.4 24.0 82 2.3 N 9 13 5 7 1004.4 1004.1 3.0
04/02:00pm 27.7 31.5 23.5 78 2.9 NNE 9 13 5 7 1004.5 1004.2 3.0
04/01:30pm 27.9 32.3 23.5 77 3.0 NNE 6 9 3 5 1004.6 1004.3 3.0
04/01:00pm 27.1 30.2 22.9 78 2.9 N 11 13 6 7 1005.0 1004.7 2.8
04/12:30pm 26.1 29.0 22.4 80 2.5 NE 11 15 6 8 1005.5 1005.2 2.8
04/12:00pm 25.4 27.8 22.9 86 1.7 ENE 15 20 8 11 1005.8 1005.5 2.8
04/11:41am 24.9 27.6 22.8 88 1.4 NNE 13 19 7 10 1006.3 1006.0 2.8
04/11:40am 25.0 27.7 22.9 88 1.4 NE 13 19 7 10 1006.2 1005.9 2.8
04/11:36am 25.3 28.0 22.8 86 1.7 ENE 13 20 7 11 1006.4 1006.1 2.6
04/11:30am 25.0 26.0 22.1 84 1.9 ESE 20 33 11 18 1006.5 1006.2 2.4
04/11:26am 24.9 24.8 22.2 85 1.8 SE 26 35 14 19 1006.1 1005.8 2.4
04/11:18am 25.3 25.6 22.2 83 2.1 S 24 37 13 20 1006.2 1005.9 2.2
04/11:17am 25.5 25.8 22.2 82 2.2 S 24 37 13 20 1006.3 1006.0 1.6
04/11:00am 30.7 34.7 25.1 72 4.0 W 13 19 7 10 1005.9 1005.6 0.2
04/10:30am 29.7 34.3 24.8 75 3.4 SW 9 15 5 8 1006.1 1005.8 0.0
04/10:00am 29.7 33.6 24.8 75 3.4 W 13 22 7 12 1006.3 1006.0 0.0
04/09:30am 29.9 32.2 24.5 73 3.8 WSW 20 30 11 16 1006.1 1005.8 0.0
04/09:00am 29.2 32.2 24.7 76 3.2 WSW 17 24 9 13 1006.1 1005.8 17.8
04/08:30am 28.4 31.5 24.8 81 2.5 WSW 17 30 9 16 1005.8 1005.5 17.8
04/08:00am 27.7 31.7 25.1 86 1.8 WSW 13 20 7 11 1005.6 1005.3 17.8
04/07:30am 26.9 31.7 25.1 90 1.3 W 9 11 5 6 1005.4 1005.1 17.8
04/07:00am 26.0 31.7 25.0 94 0.7 W 4 7 2 4 1004.9 1004.6 17.8
04/06:30am 25.6 31.7 24.4 93 0.8 CALM 0 4 0 2 1004.6 1004.3 17.8
04/06:00am 25.6 30.5 24.4 93 0.8 W 6 9 3 5 1004.3 1004.0 17.8
04/05:30am 25.9 30.5 24.7 93 0.8 WSW 9 15 5 8 1003.9 1003.6 17.8
04/05:00am 26.2 31.5 25.2 94 0.7 W 7 11 4 6 1003.6 1003.3 17.8
04/04:30am 26.4 32.3 25.4 94 0.7 W 4 9 2 5 1003.3 1003.0 17.8
04/04:00am 26.5 31.4 25.3 93 0.8 WNW 9 11 5 6 1003.3 1003.0 17.8
04/03:30am 26.4 31.0 25.4 94 0.7 NW 11 15 6 8 1003.3 1003.0 17.8
04/03:00am 26.2 31.5 25.2 94 0.7 NW 7 9 4 5 1003.3 1003.0 17.8
04/02:30am 26.2 31.1 25.2 94 0.7 NW 9 9 5 5 1003.5 1003.2 17.8
04/02:00am 26.2 31.1 25.3 95 0.6 NW 9 9 5 5 1003.8 1003.5 17.8
04/01:30am 26.1 30.9 25.1 94 0.7 NNW 9 11 5 6 1003.9 1003.6 17.8
04/01:00am 26.0 30.5 24.6 92 1.0 NNW 9 13 5 7 1004.3 1004.0 17.8
04/12:30am 25.9 29.8 24.3 91 1.1 NNW 11 13 6 7 1004.9 1004.6 17.8
04/12:00am 26.0 29.7 24.6 92 1.0 NNW 13 13 7 7 1005.2 1004.9 17.8
 
Date/Time
CST
Temp
°C
App
Temp
°C
Dew
Point
°C
Rel
Hum
%
Delta-T
°C
Wind Press
QNH
hPa
Press
MSL
hPa
Rain since
9am
mm
Dir  Spd
km/h
Gust
km/h
Spd
kts
Gust
kts
03/11:30pm 26.0 30.5 24.6 92 1.0 NW 9 13 5 7 1005.3 1005.0 17.8
03/11:00pm 26.0 30.2 24.8 93 0.8 NNW 11 13 6 7 1005.2 1004.9 17.8

Other formats

Comma delimited format used in spreadsheet applications
http://www.bom.gov.au/fwo/IDD60801/IDD60801.94150.axf

JavaScript Object Notation format (JSON) in row-major order
http://www.bom.gov.au/fwo/IDD60801/IDD60801.94150.json

Data quality

Most of these data are generated automatically and are frequently updated. Quality checks on data are not normally performed. It is possible for incorrect values to appear. Refer to information at About Latest Weather Observations and please check the disclaimer before using these data.